Time;durP1;ratioP1;P1;durP2;ratioP2;P2;SDS_P1;SDS_P2;PMS_P1;PMS_P2;Temp;Humidity;BMP_temperature;BMP_pressure;BME280_temperature;BME280_humidity;BME280_pressure;Samples;Min_cycle;Max_cycle;Signal;HPM_P1;HPM_P2
2021/06/17 00:00:29;;;;;;;12.65;7.90;;;21.40;99.90;;;;;;4918540;29;20044;-85
2021/06/17 00:02:56;;;;;;;17.75;8.55;;;21.50;99.90;;;;;;4918192;29;20048;-85
2021/06/17 00:05:28;;;;;;;15.43;8.32;;;21.40;99.90;;;;;;4902596;29;20111;-84
2021/06/17 00:07:57;;;;;;;12.13;8.13;;;21.40;99.90;;;;;;4933005;29;20046;-84
2021/06/17 00:10:49;;;;;;;12.68;8.35;;;21.40;99.90;;;;;;4920524;29;20059;-84
2021/06/17 00:13:22;;;;;;;18.13;8.30;;;21.40;99.90;;;;;;4909664;29;20056;-84
2021/06/17 00:15:50;;;;;;;15.55;8.38;;;21.40;99.90;;;;;;4917585;29;20450;-84
2021/06/17 00:18:27;;;;;;;;;;;;;;;;;;;;;
2021/06/17 00:20:53;;;;;;;16.88;8.88;;;21.30;99.90;;;;;;4920167;29;20404;-85
2021/06/17 00:23:22;;;;;;;14.02;8.98;;;21.30;99.90;;;;;;4919161;29;20040;-85
2021/06/17 00:25:48;;;;;;;13.00;8.35;;;21.20;99.90;;;;;;4918247;29;20046;-85
2021/06/17 00:28:15;;;;;;;14.93;9.07;;;21.10;99.90;;;;;;4917768;29;20519;-85
2021/06/17 00:30:41;;;;;;;10.60;8.85;;;21.10;99.90;;;;;;4926004;29;20040;-84
2021/06/17 00:33:07;;;;;;;16.73;9.13;;;21.10;99.90;;;;;;4918792;29;20477;-84
2021/06/17 00:35:36;;;;;;;14.23;9.23;;;21.00;99.90;;;;;;4918880;29;20107;-84
2021/06/17 00:38:08;;;;;;;15.18;9.73;;;21.00;99.90;;;;;;4925200;29;20044;-84
2021/06/17 00:40:38;;;;;;;15.20;9.18;;;21.20;99.90;;;;;;4917036;29;20489;-84
2021/06/17 00:43:05;;;;;;;17.33;9.23;;;21.00;99.90;;;;;;4932590;29;20050;-83
2021/06/17 00:45:42;;;;;;;16.27;10.43;;;21.00;99.90;;;;;;4933048;29;20043;-85
2021/06/17 00:48:13;;;;;;;16.73;9.98;;;21.00;99.90;;;;;;4915464;29;20044;-86
2021/06/17 00:50:45;;;;;;;13.95;9.75;;;21.00;99.90;;;;;;4936452;29;20045;-85
2021/06/17 00:53:25;;;;;;;16.17;9.93;;;20.90;99.90;;;;;;4921710;29;20048;-84
2021/06/17 00:55:51;;;;;;;12.55;9.30;;;20.90;99.90;;;;;;4932791;29;20099;-82
2021/06/17 00:58:17;;;;;;;15.23;9.60;;;20.90;99.90;;;;;;4917240;29;20036;-82
2021/06/17 01:00:46;;;;;;;13.95;9.73;;;20.90;99.90;;;;;;4921624;29;20482;-82
2021/06/17 01:03:15;;;;;;;11.95;9.68;;;20.90;99.90;;;;;;4932453;29;20401;-82
2021/06/17 01:05:44;;;;;;;12.15;9.65;;;20.90;99.90;;;;;;4916786;29;20051;-81
2021/06/17 01:08:12;;;;;;;16.00;10.57;;;20.90;99.90;;;;;;4900556;29;20111;-81
2021/06/17 01:11:05;;;;;;;12.73;10.02;;;20.90;99.90;;;;;;4922574;29;20477;-85
2021/06/17 01:13:40;;;;;;;14.30;10.38;;;20.90;99.90;;;;;;4920932;29;20077;-80
2021/06/17 01:16:25;;;;;;;15.20;10.52;;;20.90;99.90;;;;;;4899633;29;20527;-80
2021/06/17 01:18:58;;;;;;;12.38;9.95;;;20.90;99.90;;;;;;4917883;29;20412;-80
2021/06/17 01:21:53;;;;;;;15.23;10.10;;;20.90;99.90;;;;;;4917628;29;20036;-80
2021/06/17 01:24:42;;;;;;;16.58;10.93;;;20.90;99.90;;;;;;4897677;29;20063;-81
2021/06/17 01:27:49;;;;;;;17.20;11.65;;;21.00;99.90;;;;;;4917255;29;20047;-81
2021/06/17 01:30:22;;;;;;;14.75;9.98;;;20.90;99.90;;;;;;4924927;29;20151;-81
2021/06/17 01:32:56;;;;;;;16.80;10.90;;;20.90;99.90;;;;;;4916313;29;20048;-80
2021/06/17 01:35:27;;;;;;;15.95;10.15;;;20.90;99.90;;;;;;4917462;29;20133;-81
2021/06/17 01:38:00;;;;;;;15.30;10.65;;;20.90;99.90;;;;;;4931213;29;20084;-81
2021/06/17 01:40:38;;;;;;;20.45;11.57;;;20.90;99.90;;;;;;4925879;29;20098;-81
2021/06/17 01:43:06;;;;;;;14.07;11.15;;;20.80;99.90;;;;;;4917070;29;20055;-81
2021/06/17 01:45:32;;;;;;;18.30;10.60;;;20.90;99.90;;;;;;4945134;29;20039;-81
2021/06/17 01:48:07;;;;;;;17.00;12.13;;;20.90;99.90;;;;;;4917210;29;20044;-80
2021/06/17 01:50:46;;;;;;;20.08;11.25;;;20.90;99.90;;;;;;4938669;29;20032;-81
2021/06/17 01:53:20;;;;;;;21.05;11.60;;;20.90;99.90;;;;;;4931623;29;20044;-81
2021/06/17 01:55:47;;;;;;;16.15;11.63;;;20.90;99.90;;;;;;4916932;29;20048;-81
2021/06/17 01:58:15;;;;;;;14.30;11.75;;;20.80;99.90;;;;;;4916082;29;20036;-81
2021/06/17 02:00:47;;;;;;;15.30;11.07;;;20.80;99.90;;;;;;4919072;29;20131;-81
2021/06/17 02:03:17;;;;;;;16.55;11.45;;;20.80;99.90;;;;;;4915877;29;20094;-81
2021/06/17 02:05:47;;;;;;;20.80;12.10;;;20.80;99.90;;;;;;4916042;29;20040;-81
2021/06/17 02:08:16;;;;;;;15.43;11.70;;;20.80;99.90;;;;;;4916693;29;20078;-81
2021/06/17 02:10:45;;;;;;;20.52;12.68;;;20.80;99.90;;;;;;4932451;29;20046;-81
2021/06/17 02:13:18;;;;;;;15.20;12.52;;;20.80;99.90;;;;;;4916349;29;20036;-81
2021/06/17 02:15:48;;;;;;;18.65;13.13;;;20.70;99.90;;;;;;4916860;29;20040;-80
2021/06/17 02:18:20;;;;;;;17.60;12.52;;;20.70;99.90;;;;;;4931132;29;20032;-80
2021/06/17 02:20:59;;;;;;;16.52;12.85;;;20.70;99.90;;;;;;4936097;29;20044;-81
2021/06/17 02:23:31;;;;;;;20.05;13.75;;;20.80;99.90;;;;;;4914378;29;20138;-81
2021/06/17 02:26:12;;;;;;;19.98;13.45;;;20.80;99.90;;;;;;4930981;29;20071;-80
2021/06/17 02:28:42;;;;;;;16.38;12.23;;;20.70;99.90;;;;;;4916300;29;20052;-85
2021/06/17 02:31:20;;;;;;;21.70;15.32;;;20.70;99.90;;;;;;4923669;29;20050;-84
2021/06/17 02:33:50;;;;;;;18.35;14.00;;;20.70;99.90;;;;;;4916461;29;20055;-84
2021/06/17 02:36:27;;;;;;;16.58;13.88;;;20.70;99.90;;;;;;4917125;29;20136;-85
2021/06/17 02:38:57;;;;;;;;;;;20.70;99.90;;;;;;4916667;29;20040;-85
2021/06/17 02:41:25;;;;;;;18.13;15.68;;;20.70;99.90;;;;;;4913113;29;20036;-85
2021/06/17 02:43:55;;;;;;;25.30;17.27;;;20.70;99.90;;;;;;4915468;29;20442;-85
2021/06/17 02:46:23;;;;;;;22.40;16.98;;;20.70;99.90;;;;;;4931251;29;20119;-85
2021/06/17 02:48:53;;;;;;;20.73;17.80;;;20.70;99.90;;;;;;4916498;29;20047;-86
2021/06/17 02:51:23;;;;;;;28.63;19.65;;;20.70;99.90;;;;;;4907926;29;20043;-84
2021/06/17 02:53:50;;;;;;;26.30;18.75;;;20.70;99.90;;;;;;4915088;29;20084;-84
2021/06/17 02:56:25;;;;;;;25.58;19.73;;;20.70;99.90;;;;;;4916058;29;20032;-84
2021/06/17 02:59:25;;;;;;;26.17;19.92;;;20.70;99.90;;;;;;4916576;29;20044;-85
2021/06/17 03:02:20;;;;;;;27.08;21.90;;;20.70;99.90;;;;;;4906424;29;20048;-85
2021/06/17 03:04:51;;;;;;;26.35;22.02;;;20.70;99.90;;;;;;4905850;29;20048;-85
2021/06/17 03:07:31;;;;;;;25.90;21.90;;;20.70;99.90;;;;;;4930841;29;20044;-81
2021/06/17 03:10:10;;;;;;;25.90;22.17;;;20.70;99.90;;;;;;4903225;29;20044;-81
2021/06/17 03:12:38;;;;;;;27.30;23.05;;;20.70;99.90;;;;;;4918101;29;20216;-81
2021/06/17 03:15:07;;;;;;;28.55;22.77;;;20.70;99.90;;;;;;4925844;29;20036;-81
2021/06/17 03:17:42;;;;;;;26.55;21.20;;;20.70;99.90;;;;;;4918880;29;20139;-81
2021/06/17 03:20:11;;;;;;;29.38;22.02;;;20.70;99.90;;;;;;4918878;29;20055;-81
2021/06/17 03:22:44;;;;;;;25.42;21.13;;;20.70;99.90;;;;;;4917571;29;20060;-81
2021/06/17 03:25:14;;;;;;;24.65;19.20;;;20.80;99.90;;;;;;4922834;29;20481;-80
2021/06/17 03:27:41;;;;;;;26.35;19.92;;;20.70;99.90;;;;;;4934452;29;20051;-80
2021/06/17 03:30:08;;;;;;;24.00;20.23;;;20.70;99.90;;;;;;4919461;29;20497;-80
2021/06/17 03:32:37;;;;;;;25.15;19.40;;;20.70;99.90;;;;;;4918552;29;20044;-81
2021/06/17 03:35:11;;;;;;;23.30;18.73;;;20.60;99.90;;;;;;4924475;29;20031;-81
2021/06/17 03:37:39;;;;;;;25.50;20.42;;;20.70;99.90;;;;;;4919437;29;20489;-81
2021/06/17 03:40:13;;;;;;;26.08;19.85;;;20.70;99.90;;;;;;4932654;29;20040;-81
2021/06/17 03:42:47;;;;;;;25.25;21.40;;;20.70;99.90;;;;;;4933731;29;20495;-81
2021/06/17 03:45:17;;;;;;;27.27;22.40;;;20.70;99.90;;;;;;4925616;29;20119;-81
2021/06/17 03:47:48;;;;;;;26.05;21.42;;;20.70;99.90;;;;;;4919352;29;20477;-81
2021/06/17 03:50:19;;;;;;;26.95;21.15;;;20.60;99.90;;;;;;4933684;29;20055;-81
2021/06/17 03:52:50;;;;;;;24.15;21.55;;;20.70;99.90;;;;;;4919322;29;20063;-81
2021/06/17 03:55:19;;;;;;;27.30;21.02;;;20.70;99.90;;;;;;4931814;29;20536;-80
2021/06/17 03:57:47;;;;;;;24.13;21.52;;;20.70;99.90;;;;;;4916824;29;20671;-81
2021/06/17 04:00:13;;;;;;;25.35;20.63;;;20.70;99.90;;;;;;4918313;29;20541;-80
2021/06/17 04:02:41;;;;;;;22.15;19.33;;;20.70;99.90;;;;;;4917709;29;20051;-81
2021/06/17 04:05:11;;;;;;;30.25;21.75;;;20.70;99.90;;;;;;4922399;29;20043;-81
2021/06/17 04:07:48;;;;;;;27.45;20.92;;;20.70;99.90;;;;;;4902194;29;20044;-81
2021/06/17 04:10:18;;;;;;;25.83;20.98;;;20.70;99.90;;;;;;4919221;29;20036;-81
2021/06/17 04:12:46;;;;;;;24.10;19.70;;;20.70;99.90;;;;;;4906626;29;20044;-82
2021/06/17 04:15:12;;;;;;;28.33;20.33;;;20.70;99.90;;;;;;4923436;29;20111;-82
2021/06/17 04:17:44;;;;;;;24.67;19.30;;;20.70;99.90;;;;;;4919117;29;20484;-82
2021/06/17 04:20:23;;;;;;;25.33;19.88;;;20.70;99.90;;;;;;4917293;29;20091;-82
2021/06/17 04:22:54;;;;;;;22.13;19.75;;;20.80;99.90;;;;;;4916542;29;20054;-82
2021/06/17 04:25:24;;;;;;;27.50;20.55;;;20.80;99.90;;;;;;4922948;29;20032;-82
2021/06/17 04:27:56;;;;;;;26.58;19.77;;;20.90;99.90;;;;;;4902085;29;20044;-82
2021/06/17 04:30:35;;;;;;;25.02;19.67;;;20.90;99.90;;;;;;4916047;29;20050;-82
2021/06/17 04:33:18;;;;;;;25.05;20.25;;;20.90;99.90;;;;;;4903293;29;20048;-86
2021/06/17 04:35:50;;;;;;;29.65;19.80;;;21.00;99.90;;;;;;4947808;29;20036;-86
2021/06/17 04:38:28;;;;;;;23.67;19.55;;;21.00;99.90;;;;;;4928327;29;20117;-87
2021/06/17 04:40:54;;;;;;;23.15;19.15;;;21.10;99.90;;;;;;4916838;29;20516;-86
2021/06/17 04:43:30;;;;;;;27.98;18.98;;;21.50;99.90;;;;;;4920604;29;20098;-86
2021/06/17 04:45:58;;;;;;;24.15;19.58;;;21.20;99.90;;;;;;4918878;29;20052;-86
2021/06/17 04:48:27;;;;;;;23.02;18.83;;;21.20;99.90;;;;;;4919297;29;20092;-87
2021/06/17 04:50:56;;;;;;;27.08;19.27;;;21.30;99.90;;;;;;4934952;29;20141;-86
2021/06/17 04:53:24;;;;;;;23.40;18.30;;;21.40;99.90;;;;;;4921423;29;20123;-86
2021/06/17 04:55:56;;;;;;;29.70;19.00;;;21.50;99.90;;;;;;4911204;29;20143;-86
2021/06/17 04:58:24;;;;;;;22.60;17.60;;;21.70;99.90;;;;;;4934004;29;20115;-87
2021/06/17 05:00:51;;;;;;;22.92;17.90;;;21.60;99.90;;;;;;4932999;29;20469;-87
2021/06/17 05:03:24;;;;;;;23.23;18.23;;;21.60;99.90;;;;;;4918209;29;20056;-83
2021/06/17 05:05:56;;;;;;;25.83;17.73;;;21.80;99.90;;;;;;4916894;29;20100;-79
2021/06/17 05:10:52;;;;;;;20.13;17.35;;;22.00;99.90;;;;;;4917325;29;20119;-82
2021/06/17 05:13:30;;;;;;;19.70;17.60;;;22.00;99.90;;;;;;4917547;29;20043;-79
2021/06/17 05:16:01;;;;;;;28.42;17.10;;;22.10;99.90;;;;;;4919894;29;20048;-81
2021/06/17 05:18:28;;;;;;;19.23;17.10;;;22.10;99.90;;;;;;4920729;29;20123;-80
2021/06/17 05:20:57;;;;;;;24.05;17.20;;;22.20;99.90;;;;;;4917955;29;20066;-86
2021/06/17 05:23:24;;;;;;;22.08;16.65;;;22.30;99.90;;;;;;4917721;29;20084;-82
2021/06/17 05:25:51;;;;;;;21.50;16.95;;;22.40;99.90;;;;;;4927460;29;20055;-82
2021/06/17 05:28:21;;;;;;;22.15;17.40;;;22.50;99.90;;;;;;4923235;29;20044;-84
2021/06/17 05:30:49;;;;;;;26.17;17.13;;;22.60;99.90;;;;;;4918042;29;20044;-80
2021/06/17 05:33:15;;;;;;;22.60;17.30;;;22.60;99.90;;;;;;4917629;29;20047;-76
2021/06/17 05:35:43;;;;;;;19.48;15.93;;;22.70;99.90;;;;;;4917784;29;20095;-76
2021/06/17 05:38:09;;;;;;;22.05;16.70;;;22.80;99.90;;;;;;4917477;29;20076;-77
2021/06/17 05:40:40;;;;;;;26.00;16.20;;;22.90;99.90;;;;;;4904317;29;20036;-82
2021/06/17 05:43:08;;;;;;;25.38;17.13;;;22.90;99.90;;;;;;4917920;29;20099;-75
2021/06/17 05:45:34;;;;;;;24.77;16.65;;;23.00;99.90;;;;;;4916926;29;20036;-75
2021/06/17 05:48:08;;;;;;;17.65;15.75;;;23.10;99.90;;;;;;4919082;29;20065;-75
2021/06/17 05:50:34;;;;;;;23.50;15.35;;;23.20;99.90;;;;;;4917203;29;20039;-76
2021/06/17 05:53:03;;;;;;;19.23;14.93;;;23.20;99.90;;;;;;4914792;29;20055;-76
2021/06/17 05:55:29;;;;;;;17.88;15.35;;;23.30;99.90;;;;;;4917015;29;20420;-76
2021/06/17 05:58:08;;;;;;;24.92;15.80;;;23.40;99.90;;;;;;4943405;29;20041;-81
2021/06/17 06:00:34;;;;;;;21.10;15.02;;;23.50;99.90;;;;;;4921212;29;20374;-81
2021/06/17 06:03:01;;;;;;;17.60;14.98;;;23.50;99.90;;;;;;4915442;29;20067;-84
2021/06/17 06:05:27;;;;;;;17.40;15.07;;;23.60;99.90;;;;;;4907256;29;20047;-77
2021/06/17 06:07:57;;;;;;;19.55;14.98;;;23.60;99.90;;;;;;4917174;29;20040;-83
2021/06/17 06:10:47;;;;;;;15.32;13.70;;;23.70;99.90;;;;;;4917200;29;20421;-84
2021/06/17 06:13:21;;;;;;;19.23;14.60;;;23.80;99.90;;;;;;4915664;29;20043;-86
2021/06/17 06:15:47;;;;;;;22.48;14.10;;;23.80;99.90;;;;;;4917741;29;20044;-75
2021/06/17 06:18:25;;;;;;;21.55;14.50;;;23.90;99.90;;;;;;4915381;29;20047;-82
2021/06/17 06:20:58;;;;;;;16.05;14.07;;;23.90;99.90;;;;;;4923870;29;20048;-81
2021/06/17 06:23:25;;;;;;;18.00;13.77;;;24.00;99.90;;;;;;4917880;29;20043;-82
2021/06/17 06:26:17;;;;;;;21.75;15.25;;;24.00;99.90;;;;;;4930348;29;20461;-82
2021/06/17 06:28:48;;;;;;;16.27;14.55;;;24.10;99.90;;;;;;4899761;29;20040;-82
2021/06/17 06:31:14;;;;;;;16.50;14.55;;;24.10;99.90;;;;;;4915251;29;20051;-82
2021/06/17 06:33:43;;;;;;;20.50;14.85;;;24.20;99.90;;;;;;4916327;29;20480;-82
2021/06/17 06:36:12;;;;;;;17.23;14.27;;;24.30;99.90;;;;;;4915824;29;20040;-85
2021/06/17 06:38:38;;;;;;;22.08;14.02;;;24.20;99.90;;;;;;4916296;29;20062;-84
2021/06/17 06:41:10;;;;;;;21.75;14.35;;;24.30;99.90;;;;;;4916452;29;20044;-85
2021/06/17 06:43:36;;;;;;;17.42;14.10;;;24.30;99.90;;;;;;4917452;29;20646;-85
2021/06/17 06:46:02;;;;;;;18.65;13.27;;;24.30;99.90;;;;;;4915662;29;20068;-85
2021/06/17 06:48:33;;;;;;;16.88;13.73;;;24.30;99.90;;;;;;4916956;29;20040;-85
2021/06/17 06:50:59;;;;;;;19.30;13.07;;;24.40;99.90;;;;;;4899890;29;20477;-85
2021/06/17 06:56:17;;;;;;;18.50;12.32;;;24.50;99.90;;;;;;4905779;29;20043;-81
2021/06/17 06:58:43;;;;;;;14.60;11.77;;;24.50;99.90;;;;;;4931204;29;20044;-80
2021/06/17 07:01:10;;;;;;;16.25;11.52;;;24.60;99.90;;;;;;4899644;29;20036;-81
2021/06/17 07:03:39;;;;;;;18.13;10.55;;;24.60;99.90;;;;;;4916321;29;20123;-80
2021/06/17 07:06:06;;;;;;;12.70;10.15;;;24.60;99.90;;;;;;4930856;29;20032;-81
2021/06/17 07:08:38;;;;;;;23.50;10.65;;;24.60;99.90;;;;;;4900346;29;20036;-80
2021/06/17 07:11:04;;;;;;;18.85;10.30;;;24.70;99.90;;;;;;4916115;29;20103;-80
2021/06/17 07:13:32;;;;;;;18.52;9.88;;;24.70;99.90;;;;;;4914871;29;20048;-80
2021/06/17 07:16:09;;;;;;;12.85;8.70;;;24.80;99.90;;;;;;4916666;29;20067;-85
2021/06/17 07:18:35;;;;;;;13.02;9.10;;;24.80;99.90;;;;;;4915693;29;20076;-85
2021/06/17 07:21:03;;;;;;;16.25;9.48;;;24.80;99.90;;;;;;4917915;29;20528;-85
2021/06/17 07:23:32;;;;;;;13.35;9.30;;;24.90;99.90;;;;;;4931763;29;20040;-81
2021/06/17 07:25:59;;;;;;;14.27;9.38;;;24.90;99.90;;;;;;4919432;29;20044;-86
2021/06/17 07:28:30;;;;;;;10.52;8.95;;;24.90;99.90;;;;;;4916997;29;20036;-82
2021/06/17 07:30:59;;;;;;;12.20;8.93;;;25.00;99.90;;;;;;4915432;29;20048;-86
2021/06/17 07:33:28;;;;;;;11.57;9.10;;;25.00;99.90;;;;;;4916429;29;20119;-86
2021/06/17 07:35:58;;;;;;;11.55;8.35;;;25.00;99.90;;;;;;4915034;29;20115;-82
2021/06/17 07:38:29;;;;;;;11.98;8.57;;;25.00;99.90;;;;;;4915969;29;20098;-81
2021/06/17 07:40:55;;;;;;;11.50;8.63;;;24.80;99.90;;;;;;4914712;29;20075;-81
2021/06/17 07:43:24;;;;;;;10.77;8.35;;;25.10;99.90;;;;;;4930578;29;20044;-82
2021/06/17 07:45:59;;;;;;;13.82;8.25;;;25.10;99.90;;;;;;4914807;29;20040;-81
2021/06/17 07:48:28;;;;;;;11.80;8.50;;;25.10;99.90;;;;;;4914626;29;20067;-82
2021/06/17 07:50:58;;;;;;;12.88;8.68;;;25.20;99.90;;;;;;4914786;29;20041;-82
2021/06/17 07:53:24;;;;;;;10.00;8.88;;;25.20;99.90;;;;;;4914672;29;20047;-81
2021/06/17 07:55:53;;;;;;;14.38;9.13;;;25.20;99.90;;;;;;4930215;29;20041;-82
2021/06/17 07:58:19;;;;;;;16.38;8.85;;;25.20;99.90;;;;;;4917525;29;20131;-81
2021/06/17 08:00:45;;;;;;;13.07;8.55;;;25.30;99.90;;;;;;4918260;29;20115;-86
2021/06/17 08:03:23;;;;;;;12.60;8.98;;;25.40;99.90;;;;;;4903747;29;20059;-86
2021/06/17 08:05:50;;;;;;;13.32;9.60;;;25.40;99.90;;;;;;4919643;29;20040;-82
2021/06/17 08:08:17;;;;;;;10.25;9.20;;;25.40;99.90;;;;;;4918127;29;20139;-86
2021/06/17 08:10:57;;;;;;;12.43;9.27;;;25.50;99.90;;;;;;4917526;29;20076;-86
2021/06/17 08:13:25;;;;;;;12.38;8.48;;;25.50;99.90;;;;;;4920117;29;20036;-86
2021/06/17 08:15:55;;;;;;;10.48;8.52;;;25.50;99.90;;;;;;4902631;29;20048;-82
2021/06/17 08:18:26;;;;;;;14.10;8.75;;;25.60;99.90;;;;;;4918816;29;20040;-82
2021/06/17 08:21:01;;;;;;;16.13;8.57;;;25.70;99.90;;;;;;4919174;29;20044;-82
2021/06/17 08:23:32;;;;;;;12.57;7.97;;;25.90;99.90;;;;;;4917843;29;20048;-81
2021/06/17 08:25:59;;;;;;;13.77;8.38;;;25.90;99.90;;;;;;4917788;29;20051;-82
2021/06/17 08:28:30;;;;;;;12.02;8.38;;;26.10;99.90;;;;;;4918856;29;20084;-82
2021/06/17 08:31:06;;;;;;;10.73;7.97;;;26.20;99.90;;;;;;4933541;29;20048;-82
2021/06/17 08:33:37;;;;;;;10.48;7.65;;;26.20;99.90;;;;;;4919533;29;20116;-86
2021/06/17 08:36:18;;;;;;;11.85;7.97;;;26.20;99.90;;;;;;4918259;29;20477;-86
2021/06/17 08:38:46;;;;;;;10.93;8.02;;;26.30;99.90;;;;;;4933548;29;20034;-86
2021/06/17 08:41:23;;;;;;;11.38;7.60;;;26.40;99.90;;;;;;4917884;29;20048;-87
2021/06/17 08:47:20;;;;;;;13.18;7.25;;;26.60;99.90;;;;;;4918232;29;20064;-86
2021/06/17 08:50:07;;;;;;;9.10;6.90;;;26.70;99.20;;;;;;4933900;29;20086;-83
2021/06/17 08:52:45;;;;;;;12.45;7.05;;;26.80;98.90;;;;;;4917599;29;20048;-82
2021/06/17 08:55:23;;;;;;;11.43;7.15;;;26.80;98.70;;;;;;4918616;29;20099;-83
2021/06/17 08:58:14;;;;;;;13.77;6.50;;;26.80;98.40;;;;;;4932562;29;20068;-82
2021/06/17 09:01:00;;;;;;;11.90;6.70;;;26.90;98.30;;;;;;4918330;29;20059;-82
2021/06/17 09:03:32;;;;;;;15.93;6.88;;;26.90;98.60;;;;;;4917169;29;20048;-82
2021/06/17 09:06:14;;;;;;;11.93;6.25;;;27.00;98.90;;;;;;4918066;29;20043;-86
2021/06/17 09:08:42;;;;;;;15.88;6.07;;;27.00;97.80;;;;;;4918109;29;20388;-86
2021/06/17 09:11:24;;;;;;;11.85;6.25;;;27.10;97.90;;;;;;4933416;29;20115;-86
2021/06/17 09:13:51;;;;;;;9.10;6.30;;;27.20;97.70;;;;;;4917722;29;20044;-86
2021/06/17 09:16:27;;;;;;;8.65;5.78;;;27.20;97.30;;;;;;4917697;29;20448;-82
2021/06/17 09:19:05;;;;;;;14.07;5.93;;;27.30;97.10;;;;;;4918539;29;20060;-81
2021/06/17 09:21:37;;;;;;;9.35;5.20;;;27.30;97.10;;;;;;4918549;29;20063;-86
2021/06/17 09:24:05;;;;;;;11.35;6.28;;;27.30;97.00;;;;;;4917543;29;20144;-86
2021/06/17 09:26:40;;;;;;;14.15;5.90;;;27.40;96.90;;;;;;4917467;29;20047;-82
2021/06/17 09:29:12;;;;;;;10.93;5.45;;;27.50;96.30;;;;;;4916461;29;20135;-81
2021/06/17 09:31:53;;;;;;;9.60;5.63;;;27.50;96.40;;;;;;4932221;29;20036;-81
2021/06/17 09:34:26;;;;;;;10.30;5.50;;;27.60;96.10;;;;;;4917717;29;20051;-82
2021/06/17 09:37:02;;;;;;;8.13;5.40;;;27.60;96.40;;;;;;4916800;29;20126;-82
2021/06/17 09:39:34;;;;;;;8.75;5.80;;;27.70;96.20;;;;;;4931865;29;20040;-82
2021/06/17 09:42:13;;;;;;;10.02;5.32;;;27.70;96.00;;;;;;4916395;29;20119;-81
2021/06/17 09:44:41;;;;;;;13.15;5.95;;;27.90;95.60;;;;;;4916662;29;20043;-81
2021/06/17 09:47:32;;;;;;;9.02;5.35;;;27.80;95.30;;;;;;4916380;29;20068;-81
2021/06/17 09:50:25;;;;;;;10.00;5.07;;;27.90;95.70;;;;;;4915902;29;20044;-81
2021/06/17 09:53:21;;;;;;;19.80;5.60;;;27.90;95.30;;;;;;4931933;29;20124;-82
2021/06/17 09:55:53;;;;;;;11.70;6.25;;;27.90;95.10;;;;;;4916028;29;20508;-82
2021/06/17 09:58:50;;;;;;;11.52;6.07;;;28.00;95.60;;;;;;4916957;29;20039;-81
2021/06/17 10:01:34;;;;;;;9.88;6.70;;;28.20;96.40;;;;;;4932056;29;20058;-87
2021/06/17 10:04:09;;;;;;;11.57;6.53;;;28.10;96.80;;;;;;4916570;29;20059;-82
2021/06/17 10:06:43;;;;;;;14.95;6.50;;;28.20;97.00;;;;;;4917249;29;20048;-81
2021/06/17 10:09:17;;;;;;;16.92;6.85;;;28.10;96.90;;;;;;4932065;29;20047;-82
2021/06/17 10:11:53;;;;;;;8.05;5.22;;;28.20;96.60;;;;;;4917128;29;20032;-82
2021/06/17 10:14:23;;;;;;;10.70;5.50;;;28.20;95.70;;;;;;4917069;29;20119;-81
2021/06/17 10:17:03;;;;;;;10.55;4.32;;;28.30;95.60;;;;;;4915898;29;20136;-81
2021/06/17 10:19:32;;;;;;;14.50;4.75;;;28.30;94.60;;;;;;4916701;29;20047;-82
2021/06/17 10:22:18;;;;;;;11.43;5.30;;;28.40;94.00;;;;;;4931508;29;20048;-82
2021/06/17 10:24:52;;;;;;;8.23;4.38;;;28.50;93.80;;;;;;4915571;29;20059;-82
2021/06/17 10:27:53;;;;;;;10.32;4.38;;;28.50;93.30;;;;;;4931425;29;20040;-82
2021/06/17 10:30:48;;;;;;;11.05;4.72;;;28.60;92.40;;;;;;4899562;29;20047;-81
2021/06/17 10:33:37;;;;;;;6.05;4.50;;;28.80;92.50;;;;;;4915357;29;20622;-81
2021/06/17 10:36:39;;;;;;;10.05;4.70;;;28.80;92.30;;;;;;4916618;29;20040;-82
2021/06/17 10:39:17;;;;;;;10.40;5.00;;;28.90;91.70;;;;;;4916222;29;20386;-82
2021/06/17 10:41:46;;;;;;;10.05;4.75;;;29.00;91.70;;;;;;4931113;29;20036;-82
2021/06/17 10:44:54;;;;;;;6.97;4.82;;;29.00;91.90;;;;;;4916646;29;20131;-81
2021/06/17 10:47:45;;;;;;;11.05;5.20;;;29.10;91.50;;;;;;4915245;29;20140;-81
2021/06/17 10:50:47;;;;;;;7.45;5.20;;;29.20;91.20;;;;;;4915569;29;20131;-88
2021/06/17 10:53:24;;;;;;;7.95;5.18;;;29.30;91.20;;;;;;4931290;29;20078;-88
2021/06/17 10:56:33;;;;;;;10.85;5.30;;;29.30;91.60;;;;;;4915192;29;20088;-81
2021/06/17 10:59:29;;;;;;;6.72;4.90;;;29.30;92.30;;;;;;4909323;29;20099;-82
2021/06/17 11:02:09;;;;;;;8.35;5.15;;;29.40;91.90;;;;;;4931619;29;20123;-88
2021/06/17 11:04:49;;;;;;;11.80;4.97;;;29.40;91.50;;;;;;4915689;29;20048;-88
2021/06/17 11:07:21;;;;;;;10.52;4.82;;;29.40;91.40;;;;;;4917276;29;20499;-88
2021/06/17 11:10:00;;;;;;;9.30;5.28;;;29.40;91.40;;;;;;4902052;29;20381;-82
2021/06/17 11:12:36;;;;;;;7.82;4.80;;;29.50;91.40;;;;;;4916290;29;20444;-82
2021/06/17 11:15:11;;;;;;;15.80;4.40;;;29.50;90.90;;;;;;4914903;29;20430;-82
2021/06/17 11:17:40;;;;;;;7.40;4.68;;;29.60;90.70;;;;;;4915062;29;20040;-82
2021/06/17 11:20:21;;;;;;;11.50;5.20;;;29.60;90.60;;;;;;4916189;29;20047;-87
2021/06/17 11:23:03;;;;;;;7.57;4.95;;;29.70;90.30;;;;;;4915738;29;20092;-87
2021/06/17 11:25:52;;;;;;;10.35;4.80;;;29.70;90.50;;;;;;4919432;29;20138;-82
2021/06/17 11:28:22;;;;;;;5.13;4.50;;;29.70;90.70;;;;;;4915543;29;20052;-87
2021/06/17 11:31:04;;;;;;;10.00;4.88;;;29.70;90.60;;;;;;4916238;29;20119;-82
2021/06/17 11:33:43;;;;;;;9.60;4.57;;;29.70;90.10;;;;;;4902689;29;20048;-82
2021/06/17 11:36:15;;;;;;;8.57;4.68;;;29.80;90.30;;;;;;4919605;29;20036;-81
2021/06/17 11:38:51;;;;;;;10.43;4.65;;;29.80;90.20;;;;;;4933518;29;20099;-81
2021/06/17 11:41:26;;;;;;;7.60;4.68;;;29.90;90.00;;;;;;4919739;29;20089;-87
2021/06/17 11:44:06;;;;;;;;;;;29.90;89.70;;;;;;4920470;29;20127;-81
2021/06/17 11:46:39;;;;;;;9.05;4.43;;;29.90;89.60;;;;;;4920148;29;19918;-86
2021/06/17 11:49:10;;;;;;;8.25;4.93;;;29.90;89.60;;;;;;4906848;29;20048;-86
2021/06/17 11:51:54;;;;;;;13.82;4.90;;;30.00;88.40;;;;;;4900121;29;20072;-87
2021/06/17 11:54:26;;;;;;;6.93;4.35;;;30.00;88.10;;;;;;4907380;29;20127;-86
2021/06/17 11:57:03;;;;;;;12.13;3.97;;;30.00;88.60;;;;;;4920394;29;20421;-87
2021/06/17 11:59:56;;;;;;;11.07;3.88;;;30.10;87.60;;;;;;4920482;29;20032;-88
2021/06/17 12:02:25;;;;;;;7.88;4.85;;;30.20;86.50;;;;;;4934518;29;20036;-87
2021/06/17 12:05:02;;;;;;;9.15;3.95;;;30.30;85.80;;;;;;4934628;29;20040;-87
2021/06/17 12:07:33;;;;;;;8.27;3.90;;;30.30;85.90;;;;;;4935103;29;20524;-87
2021/06/17 12:10:38;;;;;;;7.55;3.45;;;30.30;85.20;;;;;;4921604;29;20489;-87
2021/06/17 12:13:10;;;;;;;7.38;3.03;;;30.40;83.40;;;;;;4918469;29;20496;-86
2021/06/17 12:15:56;;;;;;;7.82;3.05;;;30.40;83.00;;;;;;4918876;29;20048;-88
2021/06/17 12:18:25;;;;;;;7.78;3.80;;;30.50;82.10;;;;;;4903149;29;20040;-87
2021/06/17 12:20:52;;;;;;;5.70;3.65;;;30.50;82.60;;;;;;4919822;29;20405;-87
2021/06/17 12:23:34;;;;;;;;;;;;;;;;;;;;;
2021/06/17 12:26:09;;;;;;;9.88;3.58;;;30.50;82.90;;;;;;4919345;29;20040;-86
2021/06/17 12:28:58;;;;;;;;;;;30.60;82.00;;;;;;4919952;29;20409;-87
2021/06/17 12:31:38;;;;;;;8.10;3.50;;;30.60;81.40;;;;;;4882061;29;19923;-87
2021/06/17 12:34:15;;;;;;;11.40;3.67;;;30.60;80.90;;;;;;4896717;29;20037;-87
2021/06/17 12:36:42;;;;;;;11.40;3.53;;;30.80;81.70;;;;;;4880474;29;20049;-82
2021/06/17 12:39:14;;;;;;;16.92;3.42;;;30.90;81.70;;;;;;4881137;29;20041;-82
2021/06/17 12:41:56;;;;;;;10.98;3.60;;;30.90;80.40;;;;;;4895257;29;20071;-82
2021/06/17 12:44:44;;;;;;;8.75;4.00;;;31.00;79.10;;;;;;4880783;29;20397;-88
2021/06/17 12:47:27;;;;;;;6.70;3.22;;;31.10;79.70;;;;;;4880518;29;20044;-87
2021/06/17 12:53:01;;;;;;;7.00;3.65;;;31.20;79.40;;;;;;4875945;29;20045;-88
2021/06/17 12:55:38;;;;;;;13.15;3.58;;;31.30;80.10;;;;;;4868558;29;20482;-87
2021/06/17 12:58:15;;;;;;;9.75;3.90;;;31.30;79.30;;;;;;4883621;29;20041;-83
2021/06/17 13:01:09;;;;;;;9.52;3.15;;;31.30;79.70;;;;;;4880273;29;20067;-88
2021/06/17 13:03:41;;;;;;;8.75;3.28;;;31.30;78.20;;;;;;4865129;29;20057;-89
2021/06/17 13:06:08;;;;;;;7.63;3.50;;;31.20;78.90;;;;;;4892176;29;20557;-88
2021/06/17 13:08:58;;;;;;;6.43;3.10;;;31.20;78.40;;;;;;4881297;29;20041;-83
2021/06/17 13:11:51;;;;;;;5.78;3.22;;;31.30;79.60;;;;;;4893819;29;20033;-82
2021/06/17 13:14:41;;;;;;;;;;;;;;;;;;;;;
2021/06/17 13:17:27;;;;;;;9.57;3.58;;;31.50;77.90;;;;;;4879509;29;20075;-81
2021/06/17 13:20:19;;;;;;;9.18;3.20;;;31.60;77.30;;;;;;4865969;29;20049;-81
2021/06/17 13:23:22;;;;;;;;;;;;;;;;;;;;;
2021/06/17 13:26:04;;;;;;;13.02;2.92;;;31.70;76.60;;;;;;4880228;29;20052;-87
2021/06/17 13:28:30;;;;;;;5.85;3.00;;;31.80;76.70;;;;;;4879246;29;20080;-82